createdAt,value
2023-02-03T00:00:31.839Z,4.15
2023-02-03T00:03:36.689Z,4.09
2023-02-03T00:06:41.741Z,3.90
2023-02-03T00:09:48.782Z,4.04
2023-02-03T00:12:53.722Z,4.01
2023-02-03T00:15:57.157Z,3.99
2023-02-03T00:19:02.330Z,4.01
2023-02-03T00:22:08.074Z,3.94
2023-02-03T00:25:11.933Z,3.97
2023-02-03T00:28:15.498Z,3.94
2023-02-03T00:31:22.908Z,3.84
2023-02-03T00:34:29.705Z,3.93
2023-02-03T00:37:35.128Z,3.93
2023-02-03T00:40:38.729Z,3.88
2023-02-03T00:43:42.284Z,3.86
2023-02-03T00:46:45.680Z,3.91
2023-02-03T00:49:50.532Z,3.92
2023-02-03T00:52:55.595Z,3.72
2023-02-03T00:55:58.997Z,3.95
2023-02-03T00:59:06.238Z,3.92
2023-02-03T01:02:11.091Z,3.90
2023-02-03T01:05:14.748Z,3.92
2023-02-03T01:08:21.284Z,3.96
2023-02-03T01:11:29.641Z,3.94
2023-02-03T01:14:34.938Z,3.90
2023-02-03T01:17:40.898Z,3.79
2023-02-03T01:20:44.212Z,3.90
2023-02-03T01:23:49.066Z,3.70
2023-02-03T01:26:52.415Z,4.00
2023-02-03T01:29:55.723Z,4.04
2023-02-03T01:33:03.010Z,4.01
2023-02-03T01:36:06.525Z,4.03
2023-02-03T01:39:12.071Z,4.03
2023-02-03T01:42:16.449Z,4.07
2023-02-03T01:45:20.608Z,4.08
2023-02-03T01:48:31.555Z,4.13
2023-02-03T01:51:36.574Z,3.97
2023-02-03T01:54:45.132Z,4.15
2023-02-03T01:57:53.052Z,4.11
2023-02-03T02:00:57.653Z,4.17
2023-02-03T02:04:04.232Z,4.02
2023-02-03T02:07:09.464Z,4.02
2023-02-03T02:10:17.140Z,4.20
2023-02-03T02:13:21.992Z,4.25
2023-02-03T02:16:32.969Z,4.12
2023-02-03T02:20:06.523Z,4.19
2023-02-03T02:23:33.493Z,4.15
2023-02-03T02:27:00.426Z,4.00
2023-02-03T02:30:49.954Z,4.21
2023-02-03T02:34:09.587Z,4.13
2023-02-03T02:37:24.765Z,4.16
2023-02-03T02:40:36.540Z,4.12
2023-02-03T02:43:45.513Z,4.29
2023-02-03T02:46:53.773Z,4.12
2023-02-03T02:50:04.939Z,4.26
2023-02-03T02:53:12.609Z,4.15
2023-02-03T02:56:21.140Z,4.17
2023-02-03T02:59:25.454Z,4.19
2023-02-03T03:02:33.874Z,4.25
2023-02-03T03:05:43.190Z,4.31
2023-02-03T03:08:52.034Z,4.30
2023-02-03T03:12:01.570Z,4.27
2023-02-03T03:15:11.351Z,4.34
2023-02-03T03:18:19.457Z,4.36
2023-02-03T03:21:27.544Z,4.30
2023-02-03T03:24:36.226Z,4.26
2023-02-03T03:27:44.234Z,4.12
2023-02-03T03:30:52.164Z,4.33
2023-02-03T03:33:58.396Z,4.34
2023-02-03T03:37:08.702Z,4.29
2023-02-03T03:40:18.926Z,4.31
2023-02-03T03:43:29.190Z,4.36
2023-02-03T03:46:41.489Z,4.42
2023-02-03T03:49:48.004Z,4.38
2023-02-03T03:52:56.935Z,4.20
2023-02-03T03:56:02.953Z,4.44
2023-02-03T03:59:13.209Z,4.46
2023-02-03T04:02:19.705Z,4.52
2023-02-03T04:05:23.409Z,4.42
2023-02-03T04:08:30.053Z,4.44
2023-02-03T04:11:51.425Z,4.43
2023-02-03T04:14:55.124Z,4.40
2023-02-03T04:18:01.464Z,4.46
2023-02-03T04:21:05.198Z,4.52
2023-02-03T04:24:11.984Z,4.43
2023-02-03T04:27:18.571Z,4.38
2023-02-03T04:34:28.805Z,4.29
2023-02-03T04:37:33.743Z,4.29
2023-02-03T04:40:37.218Z,4.39
2023-02-03T04:43:41.335Z,4.17
2023-02-03T04:46:44.536Z,4.50
2023-02-03T04:49:51.791Z,4.44
2023-02-03T04:52:59.641Z,4.49
2023-02-03T04:56:04.551Z,4.27
2023-02-03T04:59:09.339Z,4.56
2023-02-03T05:02:14.172Z,4.50
2023-02-03T05:05:21.319Z,4.51
2023-02-03T05:08:25.183Z,4.10
2023-02-03T05:11:31.210Z,4.52
2023-02-03T05:14:35.220Z,4.52
2023-02-03T05:17:40.207Z,4.54
2023-02-03T05:20:44.917Z,4.57
2023-02-03T05:23:48.420Z,4.51
2023-02-03T05:26:51.840Z,4.65
2023-02-03T05:30:01.003Z,4.53
2023-02-03T05:33:04.762Z,4.70
2023-02-03T05:36:11.399Z,4.67
2023-02-03T05:39:15.413Z,4.59
2023-02-03T05:42:18.181Z,4.59
2023-02-03T05:45:21.866Z,4.52
2023-02-03T05:48:27.041Z,4.57
2023-02-03T05:51:31.884Z,4.52
2023-02-03T05:54:35.369Z,4.29
2023-02-03T05:57:39.411Z,4.42
2023-02-03T06:00:43.198Z,4.46
2023-02-03T06:03:46.872Z,4.55
2023-02-03T06:06:51.625Z,4.29
2023-02-03T06:09:55.096Z,4.37
2023-02-03T06:13:00.601Z,4.42
2023-02-03T06:16:05.140Z,4.47
2023-02-03T06:19:08.877Z,4.31
2023-02-03T06:22:14.123Z,4.34
2023-02-03T06:25:23.233Z,4.32
2023-02-03T06:28:26.813Z,4.39
2023-02-03T06:31:30.932Z,4.30
2023-02-03T06:34:35.398Z,4.33
2023-02-03T06:37:40.023Z,4.36
2023-02-03T06:40:43.747Z,4.40
2023-02-03T06:43:48.483Z,4.40
2023-02-03T06:46:51.974Z,4.40
2023-02-03T06:49:55.393Z,4.47
2023-02-03T06:53:01.183Z,4.39
2023-02-03T06:56:04.823Z,4.49
2023-02-03T06:59:10.136Z,4.07
2023-02-03T07:02:13.884Z,4.55
2023-02-03T07:05:19.342Z,4.47
2023-02-03T07:08:27.237Z,4.31
2023-02-03T07:11:31.565Z,4.63
2023-02-03T07:14:36.113Z,4.55
2023-02-03T07:17:39.853Z,4.52
2023-02-03T07:20:43.463Z,4.60
2023-02-03T07:23:49.782Z,4.55
2023-02-03T07:26:54.442Z,4.68
2023-02-03T07:29:59.303Z,4.72
2023-02-03T07:33:04.490Z,4.55
2023-02-03T07:36:09.242Z,4.42
2023-02-03T07:39:14.370Z,4.68
2023-02-03T07:42:17.778Z,4.25
2023-02-03T07:45:25.918Z,4.60
2023-02-03T07:48:32.231Z,4.64
2023-02-03T07:51:35.942Z,4.65
2023-02-03T07:54:42.681Z,4.66
2023-02-03T07:57:47.569Z,4.43
2023-02-03T08:00:54.520Z,4.56
2023-02-03T08:03:58.303Z,4.54
2023-02-03T08:07:01.859Z,4.70
2023-02-03T08:10:08.523Z,4.55
2023-02-03T08:13:14.584Z,4.73
2023-02-03T08:16:21.272Z,4.75
2023-02-03T08:19:25.149Z,4.80
2023-02-03T08:22:28.810Z,4.63
2023-02-03T08:25:38.363Z,4.76
2023-02-03T08:28:41.883Z,4.76
2023-02-03T08:31:45.652Z,4.84
2023-02-03T08:34:49.984Z,4.78
2023-02-03T08:37:53.301Z,4.87
2023-02-03T08:40:59.467Z,4.88
2023-02-03T08:44:04.004Z,4.82
2023-02-03T08:47:08.457Z,4.88
2023-02-03T08:50:14.440Z,4.70
2023-02-03T08:53:21.056Z,4.63
2023-02-03T08:56:27.522Z,4.88
2023-02-03T08:59:31.238Z,4.62
2023-02-03T09:02:35.657Z,4.93
2023-02-03T09:05:39.211Z,4.94
2023-02-03T09:08:47.382Z,4.88
2023-02-03T09:12:01.898Z,5.06
2023-02-03T09:15:06.577Z,5.10
2023-02-03T09:18:17.147Z,5.05
2023-02-03T09:21:33.563Z,5.05
2023-02-03T09:24:37.656Z,5.11
2023-02-03T09:27:43.408Z,5.17
2023-02-03T09:30:47.615Z,5.18
2023-02-03T09:33:51.437Z,5.24
2023-02-03T09:36:54.752Z,5.20
2023-02-03T09:39:59.108Z,5.26
2023-02-03T09:43:14.882Z,5.12
2023-02-03T09:46:22.875Z,5.15
2023-02-03T09:49:37.649Z,5.25
2023-02-03T09:52:44.240Z,5.35
2023-02-03T09:55:49.669Z,5.34
2023-02-03T09:58:56.175Z,5.27
2023-02-03T10:02:18.556Z,5.20
2023-02-03T10:05:29.067Z,5.23
2023-02-03T10:08:47.451Z,5.49
2023-02-03T10:12:11.770Z,5.39
2023-02-03T10:15:54.985Z,5.43
2023-02-03T10:19:04.390Z,5.59
2023-02-03T10:22:14.170Z,5.65
2023-02-03T10:25:24.869Z,5.69
2023-02-03T10:28:32.447Z,5.69
2023-02-03T10:34:29.308Z,5.67
2023-02-03T10:37:39.232Z,5.71
2023-02-03T10:40:42.752Z,5.70
2023-02-03T10:43:51.776Z,5.71
2023-02-03T10:46:56.590Z,5.52
2023-02-03T10:50:07.889Z,5.61
2023-02-03T10:53:25.777Z,5.63
2023-02-03T10:56:33.786Z,5.81
2023-02-03T10:59:38.289Z,5.79
2023-02-03T11:02:41.573Z,5.67
2023-02-03T11:05:47.848Z,5.78
2023-02-03T11:08:52.461Z,5.81
2023-02-03T11:12:08.045Z,5.69
2023-02-03T11:15:16.258Z,5.78
2023-02-03T11:18:40.166Z,5.77
2023-02-03T11:21:50.089Z,5.66
2023-02-03T11:24:55.254Z,5.17
2023-02-03T11:28:07.060Z,5.75
2023-02-03T11:31:20.903Z,5.73
2023-02-03T11:34:28.596Z,5.06
2023-02-03T11:37:38.132Z,5.37
2023-02-03T11:40:41.596Z,5.51
2023-02-03T11:43:45.128Z,5.76
2023-02-03T11:46:50.734Z,5.88
2023-02-03T11:50:18.642Z,5.69
2023-02-03T11:53:33.468Z,5.90
2023-02-03T11:56:56.892Z,5.58
2023-02-03T12:00:18.913Z,5.89
2023-02-03T12:03:41.424Z,5.85
2023-02-03T12:07:05.117Z,5.42
2023-02-03T12:10:23.089Z,5.85
2023-02-03T12:13:38.525Z,5.83
2023-02-03T12:17:10.071Z,5.86
2023-02-03T12:20:56.294Z,5.83
2023-02-03T12:24:05.892Z,5.75
2023-02-03T12:27:31.847Z,5.77
2023-02-03T12:30:40.409Z,5.76
2023-02-03T12:33:49.380Z,5.50
2023-02-03T12:36:58.675Z,5.73
2023-02-03T12:40:08.051Z,5.53
2023-02-03T12:43:26.852Z,5.45
2023-02-03T12:46:33.756Z,5.64
2023-02-03T12:49:45.908Z,5.67
2023-02-03T12:52:57.406Z,5.62
2023-02-03T12:56:05.101Z,5.46
2023-02-03T12:59:16.702Z,5.52
2023-02-03T13:02:28.754Z,5.51
2023-02-03T13:05:42.940Z,5.35
2023-02-03T13:08:56.903Z,5.40
2023-02-03T13:12:07.837Z,5.46
2023-02-03T13:15:28.661Z,5.48
2023-02-03T13:18:35.918Z,5.23
2023-02-03T13:21:39.332Z,5.43
2023-02-03T13:24:47.578Z,5.46
2023-02-03T13:28:00.775Z,5.46
2023-02-03T13:31:24.801Z,5.48
2023-02-03T13:34:50.044Z,5.46
2023-02-03T13:38:34.759Z,5.32
2023-02-03T13:41:43.998Z,5.54
2023-02-03T13:44:51.567Z,5.48
2023-02-03T13:47:59.225Z,5.47
2023-02-03T13:51:06.913Z,5.44
2023-02-03T13:54:17.326Z,5.38
2023-02-03T13:57:24.071Z,5.37
2023-02-03T14:01:07.207Z,5.53
2023-02-03T14:04:52.988Z,5.56
2023-02-03T14:07:57.926Z,5.58
2023-02-03T14:11:39.140Z,5.58
2023-02-03T14:15:03.065Z,5.31
2023-02-03T14:18:35.182Z,5.57
2023-02-03T14:21:47.441Z,5.49
2023-02-03T14:24:52.796Z,5.38
2023-02-03T14:28:02.861Z,5.35
2023-02-03T14:31:16.145Z,5.32
2023-02-03T14:34:19.678Z,5.19
2023-02-03T14:37:27.386Z,5.25
2023-02-03T14:40:39.701Z,5.12
2023-02-03T14:43:51.506Z,5.08
2023-02-03T14:47:08.318Z,5.13
2023-02-03T14:50:30.633Z,5.06
2023-02-03T14:54:03.341Z,4.83
2023-02-03T14:57:23.395Z,4.98
2023-02-03T15:00:31.580Z,5.11
2023-02-03T15:03:37.819Z,4.95
2023-02-03T15:06:43.872Z,5.15
2023-02-03T15:09:51.519Z,5.16
2023-02-03T15:12:56.508Z,5.14
2023-02-03T15:16:05.156Z,5.19
2023-02-03T15:19:18.361Z,5.12
2023-02-03T15:22:26.641Z,5.16
2023-02-03T15:25:33.222Z,5.00
2023-02-03T15:28:36.736Z,5.16
2023-02-03T15:31:48.815Z,5.15
2023-02-03T15:34:54.674Z,5.05
2023-02-03T15:38:04.252Z,5.03
2023-02-03T15:41:17.513Z,5.01
2023-02-03T15:44:29.466Z,4.85
2023-02-03T15:47:38.396Z,4.91
2023-02-03T15:50:46.179Z,4.81
2023-02-03T15:53:57.394Z,4.87
2023-02-03T15:57:10.786Z,4.86
2023-02-03T16:00:36.414Z,4.82
2023-02-03T16:03:43.724Z,4.81
2023-02-03T16:06:50.547Z,4.82
2023-02-03T16:09:55.559Z,4.83
2023-02-03T16:13:27.450Z,4.82
2023-02-03T16:16:36.318Z,4.77
2023-02-03T16:19:46.073Z,4.77
2023-02-03T16:23:04.045Z,4.73
2023-02-03T16:26:18.299Z,4.78
2023-02-03T16:29:40.399Z,4.75
2023-02-03T16:34:58.487Z,4.88
2023-02-03T16:38:25.761Z,4.99
2023-02-03T16:41:48.059Z,4.95
2023-02-03T16:45:09.312Z,5.02
2023-02-03T16:48:32.334Z,4.99
2023-02-03T16:51:42.102Z,5.00
2023-02-03T16:54:46.701Z,5.06
2023-02-03T16:57:51.479Z,4.74
2023-02-03T17:00:57.171Z,5.17
2023-02-03T17:04:02.175Z,5.09
2023-02-03T17:07:07.797Z,5.07
2023-02-03T17:10:14.647Z,5.05
2023-02-03T17:13:20.947Z,5.05
2023-02-03T17:16:25.814Z,5.07
2023-02-03T17:19:29.188Z,5.02
2023-02-03T17:22:34.100Z,5.02
2023-02-03T17:25:39.669Z,5.09
2023-02-03T17:28:46.561Z,4.95
2023-02-03T17:31:50.703Z,5.14
2023-02-03T17:34:54.465Z,5.15
2023-02-03T17:37:59.818Z,5.29
2023-02-03T17:54:55.499Z,5.37
2023-02-03T17:57:59.133Z,5.39
2023-02-03T18:01:08.627Z,5.48
2023-02-03T18:04:16.416Z,5.55
2023-02-03T18:07:22.232Z,5.16
2023-02-03T18:10:27.421Z,5.60
2023-02-03T18:13:33.307Z,5.37
2023-02-03T18:16:41.676Z,5.57
2023-02-03T18:19:51.923Z,5.55
2023-02-03T18:23:04.639Z,5.54
2023-02-03T18:26:13.031Z,5.55
2023-02-03T18:29:19.180Z,5.65
2023-02-03T18:32:22.801Z,5.54
2023-02-03T18:35:29.747Z,5.31
2023-02-03T18:38:47.009Z,5.57
2023-02-03T18:41:52.051Z,5.55
2023-02-03T18:44:55.560Z,5.47
2023-02-03T18:47:59.325Z,5.32
2023-02-03T18:51:02.969Z,5.57
2023-02-03T18:54:07.098Z,5.62
2023-02-03T18:57:15.892Z,5.60
2023-02-03T19:00:20.731Z,5.69
2023-02-03T19:03:26.211Z,5.34
2023-02-03T19:06:31.808Z,5.72
2023-02-03T19:09:38.286Z,5.65
2023-02-03T19:12:44.497Z,5.75
2023-02-03T19:15:49.406Z,5.85
2023-02-03T19:18:53.588Z,5.83
2023-02-03T19:21:58.789Z,5.98
2023-02-03T19:25:03.111Z,5.97
2023-02-03T19:28:17.494Z,5.93
2023-02-03T19:31:25.575Z,5.92
2023-02-03T19:34:32.078Z,5.91
2023-02-03T19:37:35.538Z,5.89
2023-02-03T19:40:38.857Z,5.95
2023-02-03T19:43:47.766Z,5.93
2023-02-03T19:46:51.312Z,5.95
2023-02-03T19:49:54.818Z,5.90
2023-02-03T19:52:58.416Z,5.94
2023-02-03T19:56:02.532Z,6.00
2023-02-03T19:59:09.150Z,6.03
2023-02-03T20:02:14.633Z,6.12
2023-02-03T20:05:22.866Z,6.26
2023-02-03T20:08:26.653Z,6.22
2023-02-03T20:11:32.298Z,6.13
2023-02-03T20:14:37.300Z,6.13
2023-02-03T20:17:43.293Z,6.13
2023-02-03T20:20:51.656Z,5.60
2023-02-03T20:23:55.830Z,6.09
2023-02-03T20:26:59.136Z,6.00
2023-02-03T20:30:04.614Z,5.90
2023-02-03T20:33:12.721Z,5.92
2023-02-03T20:36:17.192Z,5.81
2023-02-03T20:39:23.244Z,5.99
2023-02-03T20:42:26.583Z,6.12
2023-02-03T20:45:31.550Z,6.13
2023-02-03T20:48:36.049Z,6.07
2023-02-03T20:51:40.005Z,6.10
2023-02-03T20:54:44.005Z,6.12
2023-02-03T20:57:50.367Z,5.34
2023-02-03T21:00:57.272Z,6.03
2023-02-03T21:04:18.121Z,5.94
2023-02-03T21:07:22.987Z,6.10
2023-02-03T21:10:27.605Z,6.00
2023-02-03T21:13:36.143Z,5.96
2023-02-03T21:16:40.822Z,5.96
2023-02-03T21:19:44.170Z,5.55
2023-02-03T21:22:55.618Z,5.96
2023-02-03T21:26:21.522Z,5.81
2023-02-03T21:29:27.778Z,5.74
2023-02-03T21:32:39.123Z,5.67
2023-02-03T21:35:42.817Z,5.85
2023-02-03T21:38:49.671Z,5.54
2023-02-03T21:41:53.537Z,5.72
2023-02-03T21:45:04.794Z,5.39
2023-02-03T21:48:32.657Z,5.62
2023-02-03T21:51:39.611Z,5.81
2023-02-03T21:54:47.151Z,5.30
2023-02-03T21:58:07.165Z,5.67
2023-02-03T22:01:16.720Z,4.57
2023-02-03T22:04:22.323Z,5.54
2023-02-03T22:07:26.928Z,5.26
2023-02-03T22:10:31.067Z,5.69
2023-02-03T22:13:35.661Z,4.62
2023-02-03T22:16:39.472Z,4.48
2023-02-03T22:19:49.021Z,3.51
2023-02-03T22:22:52.969Z,5.37
2023-02-03T22:25:56.469Z,5.17
2023-02-03T22:29:00.944Z,5.31
2023-02-03T22:34:31.323Z,5.40
2023-02-03T22:37:36.016Z,5.24
2023-02-03T22:40:39.774Z,5.32
2023-02-03T22:43:43.275Z,5.11
2023-02-03T22:46:46.990Z,5.29
2023-02-03T22:49:52.754Z,5.02
2023-02-03T22:52:57.274Z,5.13
2023-02-03T22:56:02.117Z,5.21
2023-02-03T22:59:06.178Z,5.16
2023-02-03T23:02:12.426Z,4.93
2023-02-03T23:05:20.992Z,4.92
2023-02-03T23:08:26.527Z,4.96
2023-02-03T23:11:30.343Z,4.71
2023-02-03T23:14:34.901Z,4.57
2023-02-03T23:17:38.959Z,5.01
2023-02-03T23:20:45.013Z,4.89
2023-02-03T23:23:52.357Z,4.78
2023-02-03T23:26:59.278Z,4.71
2023-02-03T23:30:03.048Z,4.91
2023-02-03T23:33:10.067Z,4.84
2023-02-03T23:36:14.643Z,4.90
2023-02-03T23:39:24.022Z,4.07
2023-02-03T23:42:31.565Z,4.76
2023-02-03T23:45:35.461Z,4.85
2023-02-03T23:48:39.419Z,4.90
2023-02-03T23:51:44.151Z,4.91
2023-02-03T23:54:48.134Z,4.78
2023-02-03T23:58:03.234Z,4.74
